sensor_id;sensor_type;location;lat;lon;timestamp;P1;durP1;ratioP1;P2;durP2;ratioP2
48034;SDS011;33812;46.480;6.834;2023-12-04T00:01:22;2.80;;;1.30;;
48034;SDS011;33812;46.480;6.834;2023-12-04T00:05:25;4.35;;;1.30;;
48034;SDS011;33812;46.480;6.834;2023-12-04T00:09:27;3.15;;;1.40;;
48034;SDS011;33812;46.480;6.834;2023-12-04T00:13:28;3.58;;;1.42;;
48034;SDS011;33812;46.480;6.834;2023-12-04T00:17:31;2.13;;;1.10;;
48034;SDS011;33812;46.480;6.834;2023-12-04T00:21:33;3.05;;;1.10;;
48034;SDS011;33812;46.480;6.834;2023-12-04T00:25:35;2.92;;;1.70;;
48034;SDS011;33812;46.480;6.834;2023-12-04T00:29:37;2.22;;;1.17;;
48034;SDS011;33812;46.480;6.834;2023-12-04T00:33:40;2.85;;;1.15;;
48034;SDS011;33812;46.480;6.834;2023-12-04T00:37:42;3.47;;;1.50;;
48034;SDS011;33812;46.480;6.834;2023-12-04T00:41:43;3.10;;;1.40;;
48034;SDS011;33812;46.480;6.834;2023-12-04T00:45:45;2.05;;;1.23;;
48034;SDS011;33812;46.480;6.834;2023-12-04T00:49:48;2.63;;;1.30;;
48034;SDS011;33812;46.480;6.834;2023-12-04T00:53:50;2.80;;;1.48;;
48034;SDS011;33812;46.480;6.834;2023-12-04T00:57:52;3.65;;;1.35;;
48034;SDS011;33812;46.480;6.834;2023-12-04T01:01:53;2.58;;;1.25;;
48034;SDS011;33812;46.480;6.834;2023-12-04T01:05:56;2.03;;;0.90;;
48034;SDS011;33812;46.480;6.834;2023-12-04T01:09:58;3.55;;;1.50;;
48034;SDS011;33812;46.480;6.834;2023-12-04T01:14:00;1.77;;;1.02;;
48034;SDS011;33812;46.480;6.834;2023-12-04T01:18:02;2.10;;;1.30;;
48034;SDS011;33812;46.480;6.834;2023-12-04T01:22:05;2.47;;;0.80;;
48034;SDS011;33812;46.480;6.834;2023-12-04T01:26:07;1.33;;;0.80;;
48034;SDS011;33812;46.480;6.834;2023-12-04T01:30:09;1.85;;;1.00;;
48034;SDS011;33812;46.480;6.834;2023-12-04T01:34:12;1.75;;;1.25;;
48034;SDS011;33812;46.480;6.834;2023-12-04T01:38:15;1.60;;;0.90;;
48034;SDS011;33812;46.480;6.834;2023-12-04T01:42:17;1.48;;;0.80;;
48034;SDS011;33812;46.480;6.834;2023-12-04T01:46:19;2.95;;;1.30;;
48034;SDS011;33812;46.480;6.834;2023-12-04T01:50:21;3.03;;;1.00;;
48034;SDS011;33812;46.480;6.834;2023-12-04T01:54:25;1.35;;;1.00;;
48034;SDS011;33812;46.480;6.834;2023-12-04T01:58:27;2.22;;;1.08;;
48034;SDS011;33812;46.480;6.834;2023-12-04T02:02:29;2.20;;;0.85;;
48034;SDS011;33812;46.480;6.834;2023-12-04T02:06:31;1.75;;;0.90;;
48034;SDS011;33812;46.480;6.834;2023-12-04T02:10:34;1.98;;;0.98;;
48034;SDS011;33812;46.480;6.834;2023-12-04T02:14:36;3.95;;;1.33;;
48034;SDS011;33812;46.480;6.834;2023-12-04T02:18:38;2.92;;;1.30;;
48034;SDS011;33812;46.480;6.834;2023-12-04T02:22:40;2.25;;;1.10;;
48034;SDS011;33812;46.480;6.834;2023-12-04T02:26:45;2.28;;;0.70;;
48034;SDS011;33812;46.480;6.834;2023-12-04T02:30:50;2.72;;;1.10;;
48034;SDS011;33812;46.480;6.834;2023-12-04T02:34:53;1.55;;;0.73;;
48034;SDS011;33812;46.480;6.834;2023-12-04T02:38:56;1.77;;;0.90;;
48034;SDS011;33812;46.480;6.834;2023-12-04T02:43:00;1.98;;;0.85;;
48034;SDS011;33812;46.480;6.834;2023-12-04T02:47:02;1.95;;;0.93;;
48034;SDS011;33812;46.480;6.834;2023-12-04T02:51:06;2.15;;;0.98;;
48034;SDS011;33812;46.480;6.834;2023-12-04T02:55:08;1.92;;;0.80;;
48034;SDS011;33812;46.480;6.834;2023-12-04T02:59:11;2.30;;;1.02;;
48034;SDS011;33812;46.480;6.834;2023-12-04T03:03:13;1.08;;;0.73;;
48034;SDS011;33812;46.480;6.834;2023-12-04T03:07:15;2.45;;;1.08;;
48034;SDS011;33812;46.480;6.834;2023-12-04T03:11:20;2.35;;;0.90;;
48034;SDS011;33812;46.480;6.834;2023-12-04T03:15:23;1.88;;;0.90;;
48034;SDS011;33812;46.480;6.834;2023-12-04T03:19:25;2.78;;;1.20;;
48034;SDS011;33812;46.480;6.834;2023-12-04T03:23:26;1.83;;;1.10;;
48034;SDS011;33812;46.480;6.834;2023-12-04T03:27:29;2.15;;;1.00;;
48034;SDS011;33812;46.480;6.834;2023-12-04T03:31:32;1.27;;;0.77;;
48034;SDS011;33812;46.480;6.834;2023-12-04T03:35:34;1.63;;;1.08;;
48034;SDS011;33812;46.480;6.834;2023-12-04T03:39:36;1.25;;;0.85;;
48034;SDS011;33812;46.480;6.834;2023-12-04T03:43:37;3.75;;;0.93;;
48034;SDS011;33812;46.480;6.834;2023-12-04T03:47:41;1.48;;;0.80;;
48034;SDS011;33812;46.480;6.834;2023-12-04T03:51:42;2.47;;;1.23;;
48034;SDS011;33812;46.480;6.834;2023-12-04T03:55:44;2.00;;;0.88;;
48034;SDS011;33812;46.480;6.834;2023-12-04T03:59:46;1.05;;;0.60;;
48034;SDS011;33812;46.480;6.834;2023-12-04T04:03:49;2.25;;;1.05;;
48034;SDS011;33812;46.480;6.834;2023-12-04T04:07:50;2.75;;;1.10;;
48034;SDS011;33812;46.480;6.834;2023-12-04T04:11:52;2.78;;;1.33;;
48034;SDS011;33812;46.480;6.834;2023-12-04T04:15:54;1.45;;;0.90;;
48034;SDS011;33812;46.480;6.834;2023-12-04T04:19:57;2.00;;;1.10;;
48034;SDS011;33812;46.480;6.834;2023-12-04T04:23:59;2.55;;;1.30;;
48034;SDS011;33812;46.480;6.834;2023-12-04T04:28:01;1.02;;;0.73;;
48034;SDS011;33812;46.480;6.834;2023-12-04T04:32:03;3.83;;;1.50;;
48034;SDS011;33812;46.480;6.834;2023-12-04T04:36:08;1.83;;;0.93;;
48034;SDS011;33812;46.480;6.834;2023-12-04T04:40:10;1.35;;;0.68;;
48034;SDS011;33812;46.480;6.834;2023-12-04T04:44:12;3.03;;;1.23;;
48034;SDS011;33812;46.480;6.834;2023-12-04T04:48:14;0.85;;;0.60;;
48034;SDS011;33812;46.480;6.834;2023-12-04T04:52:17;0.40;;;0.40;;
48034;SDS011;33812;46.480;6.834;2023-12-04T04:56:19;2.10;;;0.80;;
48034;SDS011;33812;46.480;6.834;2023-12-04T05:00:21;2.22;;;0.98;;
48034;SDS011;33812;46.480;6.834;2023-12-04T05:04:23;0.77;;;0.77;;
48034;SDS011;33812;46.480;6.834;2023-12-04T05:08:26;2.05;;;0.98;;
48034;SDS011;33812;46.480;6.834;2023-12-04T05:12:28;1.27;;;0.63;;
48034;SDS011;33812;46.480;6.834;2023-12-04T05:16:30;1.13;;;0.63;;
48034;SDS011;33812;46.480;6.834;2023-12-04T05:20:32;0.68;;;0.60;;
48034;SDS011;33812;46.480;6.834;2023-12-04T05:24:35;3.05;;;0.85;;
48034;SDS011;33812;46.480;6.834;2023-12-04T05:28:37;1.63;;;0.70;;
48034;SDS011;33812;46.480;6.834;2023-12-04T05:32:38;1.33;;;0.60;;
48034;SDS011;33812;46.480;6.834;2023-12-04T05:36:40;1.10;;;0.80;;
48034;SDS011;33812;46.480;6.834;2023-12-04T05:40:43;1.15;;;0.65;;
48034;SDS011;33812;46.480;6.834;2023-12-04T05:44:45;0.63;;;0.50;;
48034;SDS011;33812;46.480;6.834;2023-12-04T05:48:47;0.85;;;0.65;;
48034;SDS011;33812;46.480;6.834;2023-12-04T05:52:49;1.55;;;0.90;;
48034;SDS011;33812;46.480;6.834;2023-12-04T05:56:52;1.42;;;0.88;;
48034;SDS011;33812;46.480;6.834;2023-12-04T06:00:54;3.90;;;1.08;;
48034;SDS011;33812;46.480;6.834;2023-12-04T06:04:56;6.47;;;1.63;;
48034;SDS011;33812;46.480;6.834;2023-12-04T06:08:58;4.00;;;1.90;;
48034;SDS011;33812;46.480;6.834;2023-12-04T06:13:01;6.00;;;2.00;;
48034;SDS011;33812;46.480;6.834;2023-12-04T06:17:03;6.97;;;1.75;;
48034;SDS011;33812;46.480;6.834;2023-12-04T06:21:06;4.40;;;1.33;;
48034;SDS011;33812;46.480;6.834;2023-12-04T06:25:09;4.43;;;1.58;;
48034;SDS011;33812;46.480;6.834;2023-12-04T06:29:13;6.65;;;1.25;;
48034;SDS011;33812;46.480;6.834;2023-12-04T06:33:16;6.78;;;1.23;;
48034;SDS011;33812;46.480;6.834;2023-12-04T06:37:20;6.40;;;1.05;;
48034;SDS011;33812;46.480;6.834;2023-12-04T06:41:23;6.82;;;1.85;;
48034;SDS011;33812;46.480;6.834;2023-12-04T06:45:27;4.38;;;1.83;;
48034;SDS011;33812;46.480;6.834;2023-12-04T06:49:31;4.80;;;1.63;;
48034;SDS011;33812;46.480;6.834;2023-12-04T06:53:34;2.10;;;1.23;;
48034;SDS011;33812;46.480;6.834;2023-12-04T06:57:35;4.15;;;1.30;;
48034;SDS011;33812;46.480;6.834;2023-12-04T07:01:38;4.93;;;1.48;;
48034;SDS011;33812;46.480;6.834;2023-12-04T07:05:40;5.88;;;1.50;;
48034;SDS011;33812;46.480;6.834;2023-12-04T07:09:42;7.78;;;1.73;;
48034;SDS011;33812;46.480;6.834;2023-12-04T07:13:44;24.45;;;2.90;;
48034;SDS011;33812;46.480;6.834;2023-12-04T07:17:47;12.82;;;1.83;;
48034;SDS011;33812;46.480;6.834;2023-12-04T07:21:49;12.93;;;1.77;;
48034;SDS011;33812;46.480;6.834;2023-12-04T07:25:50;7.00;;;1.35;;
48034;SDS011;33812;46.480;6.834;2023-12-04T07:29:53;10.25;;;1.75;;
48034;SDS011;33812;46.480;6.834;2023-12-04T07:33:56;8.18;;;1.60;;
48034;SDS011;33812;46.480;6.834;2023-12-04T07:38:00;6.90;;;2.15;;
48034;SDS011;33812;46.480;6.834;2023-12-04T07:42:03;11.55;;;1.88;;
48034;SDS011;33812;46.480;6.834;2023-12-04T07:46:05;9.32;;;1.38;;
48034;SDS011;33812;46.480;6.834;2023-12-04T07:50:09;5.47;;;1.73;;
48034;SDS011;33812;46.480;6.834;2023-12-04T07:54:12;6.28;;;1.80;;
48034;SDS011;33812;46.480;6.834;2023-12-04T07:58:14;7.65;;;1.67;;
48034;SDS011;33812;46.480;6.834;2023-12-04T08:02:16;10.00;;;1.83;;
48034;SDS011;33812;46.480;6.834;2023-12-04T08:06:19;3.60;;;1.23;;
48034;SDS011;33812;46.480;6.834;2023-12-04T08:10:21;5.70;;;1.67;;
48034;SDS011;33812;46.480;6.834;2023-12-04T08:14:24;12.90;;;1.95;;
48034;SDS011;33812;46.480;6.834;2023-12-04T08:18:26;12.43;;;2.08;;
48034;SDS011;33812;46.480;6.834;2023-12-04T08:22:29;8.52;;;1.92;;
48034;SDS011;33812;46.480;6.834;2023-12-04T08:26:31;5.18;;;1.73;;
48034;SDS011;33812;46.480;6.834;2023-12-04T08:30:33;13.52;;;1.85;;
48034;SDS011;33812;46.480;6.834;2023-12-04T08:34:35;6.95;;;1.80;;
48034;SDS011;33812;46.480;6.834;2023-12-04T08:38:38;4.90;;;1.90;;
48034;SDS011;33812;46.480;6.834;2023-12-04T08:42:40;3.60;;;1.40;;
48034;SDS011;33812;46.480;6.834;2023-12-04T08:46:42;5.55;;;2.35;;
48034;SDS011;33812;46.480;6.834;2023-12-04T08:50:45;3.35;;;1.55;;
48034;SDS011;33812;46.480;6.834;2023-12-04T08:54:48;4.55;;;2.08;;
48034;SDS011;33812;46.480;6.834;2023-12-04T08:58:50;6.40;;;1.60;;
48034;SDS011;33812;46.480;6.834;2023-12-04T09:02:52;12.05;;;2.17;;
48034;SDS011;33812;46.480;6.834;2023-12-04T09:06:53;6.05;;;1.75;;
48034;SDS011;33812;46.480;6.834;2023-12-04T09:10:56;13.45;;;1.95;;
48034;SDS011;33812;46.480;6.834;2023-12-04T09:14:58;7.43;;;2.25;;
48034;SDS011;33812;46.480;6.834;2023-12-04T09:19:00;9.00;;;2.00;;
48034;SDS011;33812;46.480;6.834;2023-12-04T09:23:02;4.40;;;1.52;;
48034;SDS011;33812;46.480;6.834;2023-12-04T09:27:05;5.95;;;1.42;;
48034;SDS011;33812;46.480;6.834;2023-12-04T09:31:08;6.85;;;2.10;;
48034;SDS011;33812;46.480;6.834;2023-12-04T09:35:10;7.03;;;1.67;;
48034;SDS011;33812;46.480;6.834;2023-12-04T09:39:11;8.23;;;1.75;;
48034;SDS011;33812;46.480;6.834;2023-12-04T09:43:15;7.20;;;1.90;;
48034;SDS011;33812;46.480;6.834;2023-12-04T09:47:20;5.18;;;1.17;;
48034;SDS011;33812;46.480;6.834;2023-12-04T09:55:25;6.15;;;1.90;;
48034;SDS011;33812;46.480;6.834;2023-12-04T09:59:28;8.68;;;1.80;;
48034;SDS011;33812;46.480;6.834;2023-12-04T10:03:32;11.15;;;1.50;;
48034;SDS011;33812;46.480;6.834;2023-12-04T10:07:34;4.43;;;1.45;;
48034;SDS011;33812;46.480;6.834;2023-12-04T10:11:39;2.53;;;1.45;;
48034;SDS011;33812;46.480;6.834;2023-12-04T10:15:47;4.18;;;1.58;;
48034;SDS011;33812;46.480;6.834;2023-12-04T10:19:49;3.55;;;1.35;;
48034;SDS011;33812;46.480;6.834;2023-12-04T10:24:10;4.63;;;1.77;;
48034;SDS011;33812;46.480;6.834;2023-12-04T10:28:12;5.03;;;1.65;;
48034;SDS011;33812;46.480;6.834;2023-12-04T10:32:19;3.25;;;1.50;;
48034;SDS011;33812;46.480;6.834;2023-12-04T10:36:22;5.38;;;1.60;;
48034;SDS011;33812;46.480;6.834;2023-12-04T10:40:24;4.47;;;1.75;;
48034;SDS011;33812;46.480;6.834;2023-12-04T10:44:26;3.88;;;1.50;;
48034;SDS011;33812;46.480;6.834;2023-12-04T10:48:30;5.07;;;2.03;;
48034;SDS011;33812;46.480;6.834;2023-12-04T10:52:32;4.37;;;1.80;;
48034;SDS011;33812;46.480;6.834;2023-12-04T10:56:35;2.75;;;1.38;;
48034;SDS011;33812;46.480;6.834;2023-12-04T11:04:45;2.92;;;1.40;;
48034;SDS011;33812;46.480;6.834;2023-12-04T11:08:51;3.88;;;1.75;;
48034;SDS011;33812;46.480;6.834;2023-12-04T11:12:57;4.13;;;1.65;;
48034;SDS011;33812;46.480;6.834;2023-12-04T11:17:04;5.85;;;1.60;;
48034;SDS011;33812;46.480;6.834;2023-12-04T11:21:13;4.65;;;2.00;;
48034;SDS011;33812;46.480;6.834;2023-12-04T11:25:16;3.65;;;1.48;;
48034;SDS011;33812;46.480;6.834;2023-12-04T11:29:19;15.70;;;2.03;;
48034;SDS011;33812;46.480;6.834;2023-12-04T11:33:22;5.03;;;1.50;;
48034;SDS011;33812;46.480;6.834;2023-12-04T11:37:26;3.70;;;1.45;;
48034;SDS011;33812;46.480;6.834;2023-12-04T11:41:27;2.78;;;1.40;;
48034;SDS011;33812;46.480;6.834;2023-12-04T11:45:31;3.63;;;1.52;;
48034;SDS011;33812;46.480;6.834;2023-12-04T11:49:34;3.92;;;1.80;;
48034;SDS011;33812;46.480;6.834;2023-12-04T11:53:39;5.18;;;1.90;;
48034;SDS011;33812;46.480;6.834;2023-12-04T11:57:40;2.33;;;1.70;;
48034;SDS011;33812;46.480;6.834;2023-12-04T12:01:42;3.45;;;1.63;;
48034;SDS011;33812;46.480;6.834;2023-12-04T12:05:44;2.55;;;1.48;;
48034;SDS011;33812;46.480;6.834;2023-12-04T12:13:52;3.17;;;1.60;;
48034;SDS011;33812;46.480;6.834;2023-12-04T12:17:54;1.90;;;1.35;;
48034;SDS011;33812;46.480;6.834;2023-12-04T12:21:56;2.85;;;1.50;;
48034;SDS011;33812;46.480;6.834;2023-12-04T12:25:59;3.38;;;1.50;;
48034;SDS011;33812;46.480;6.834;2023-12-04T12:30:01;3.53;;;1.90;;
48034;SDS011;33812;46.480;6.834;2023-12-04T12:34:04;4.63;;;1.70;;
48034;SDS011;33812;46.480;6.834;2023-12-04T12:38:06;3.92;;;1.60;;
48034;SDS011;33812;46.480;6.834;2023-12-04T12:42:09;2.55;;;1.30;;
48034;SDS011;33812;46.480;6.834;2023-12-04T12:46:11;2.85;;;1.23;;
48034;SDS011;33812;46.480;6.834;2023-12-04T12:50:13;1.90;;;1.27;;
48034;SDS011;33812;46.480;6.834;2023-12-04T12:54:16;2.67;;;1.27;;
48034;SDS011;33812;46.480;6.834;2023-12-04T12:58:19;3.78;;;1.50;;
48034;SDS011;33812;46.480;6.834;2023-12-04T13:02:22;5.40;;;1.70;;
48034;SDS011;33812;46.480;6.834;2023-12-04T13:06:23;5.60;;;1.10;;
48034;SDS011;33812;46.480;6.834;2023-12-04T13:10:25;3.50;;;1.40;;
48034;SDS011;33812;46.480;6.834;2023-12-04T13:14:29;4.68;;;1.58;;
48034;SDS011;33812;46.480;6.834;2023-12-04T13:18:30;3.63;;;1.70;;
48034;SDS011;33812;46.480;6.834;2023-12-04T13:22:35;2.88;;;1.52;;
48034;SDS011;33812;46.480;6.834;2023-12-04T13:26:37;5.35;;;1.88;;
48034;SDS011;33812;46.480;6.834;2023-12-04T13:30:40;2.83;;;1.50;;
48034;SDS011;33812;46.480;6.834;2023-12-04T13:34:42;6.87;;;1.23;;
48034;SDS011;33812;46.480;6.834;2023-12-04T13:38:44;3.30;;;1.40;;
48034;SDS011;33812;46.480;6.834;2023-12-04T13:42:46;7.85;;;1.60;;
48034;SDS011;33812;46.480;6.834;2023-12-04T13:47:07;9.38;;;1.00;;
48034;SDS011;33812;46.480;6.834;2023-12-04T13:51:09;3.38;;;1.45;;
48034;SDS011;33812;46.480;6.834;2023-12-04T13:55:11;4.18;;;1.20;;
48034;SDS011;33812;46.480;6.834;2023-12-04T13:59:19;4.78;;;1.48;;
48034;SDS011;33812;46.480;6.834;2023-12-04T14:03:23;1.90;;;1.00;;
48034;SDS011;33812;46.480;6.834;2023-12-04T14:07:25;4.97;;;1.48;;
48034;SDS011;33812;46.480;6.834;2023-12-04T14:11:27;2.50;;;1.10;;
48034;SDS011;33812;46.480;6.834;2023-12-04T14:15:28;4.13;;;1.35;;
48034;SDS011;33812;46.480;6.834;2023-12-04T14:19:32;4.40;;;1.30;;
48034;SDS011;33812;46.480;6.834;2023-12-04T14:23:33;7.53;;;1.75;;
48034;SDS011;33812;46.480;6.834;2023-12-04T14:27:35;2.83;;;1.10;;
48034;SDS011;33812;46.480;6.834;2023-12-04T14:31:39;4.35;;;1.35;;
48034;SDS011;33812;46.480;6.834;2023-12-04T14:35:42;13.35;;;1.90;;
48034;SDS011;33812;46.480;6.834;2023-12-04T14:39:44;2.72;;;1.20;;
48034;SDS011;33812;46.480;6.834;2023-12-04T14:43:46;5.00;;;1.30;;
48034;SDS011;33812;46.480;6.834;2023-12-04T14:47:48;4.85;;;1.75;;
48034;SDS011;33812;46.480;6.834;2023-12-04T14:51:53;4.87;;;1.60;;
48034;SDS011;33812;46.480;6.834;2023-12-04T14:55:56;5.17;;;1.50;;
48034;SDS011;33812;46.480;6.834;2023-12-04T15:00:30;2.92;;;1.25;;
48034;SDS011;33812;46.480;6.834;2023-12-04T15:04:49;5.25;;;1.23;;
48034;SDS011;33812;46.480;6.834;2023-12-04T15:09:20;2.08;;;1.10;;
48034;SDS011;33812;46.480;6.834;2023-12-04T15:13:39;3.25;;;1.20;;
48034;SDS011;33812;46.480;6.834;2023-12-04T15:17:53;9.52;;;1.00;;
48034;SDS011;33812;46.480;6.834;2023-12-04T15:22:15;3.47;;;1.08;;
48034;SDS011;33812;46.480;6.834;2023-12-04T15:26:19;4.43;;;1.60;;
48034;SDS011;33812;46.480;6.834;2023-12-04T15:30:21;1.27;;;0.95;;
48034;SDS011;33812;46.480;6.834;2023-12-04T15:34:23;4.05;;;1.00;;
48034;SDS011;33812;46.480;6.834;2023-12-04T15:38:26;2.88;;;0.75;;
48034;SDS011;33812;46.480;6.834;2023-12-04T15:42:30;1.52;;;0.77;;
48034;SDS011;33812;46.480;6.834;2023-12-04T15:46:32;1.90;;;0.82;;
48034;SDS011;33812;46.480;6.834;2023-12-04T15:50:34;2.70;;;1.02;;
48034;SDS011;33812;46.480;6.834;2023-12-04T15:54:36;1.35;;;0.75;;
48034;SDS011;33812;46.480;6.834;2023-12-04T15:58:39;4.35;;;1.02;;
48034;SDS011;33812;46.480;6.834;2023-12-04T16:02:41;2.58;;;0.95;;
48034;SDS011;33812;46.480;6.834;2023-12-04T16:06:43;1.45;;;0.63;;
48034;SDS011;33812;46.480;6.834;2023-12-04T16:10:45;0.85;;;0.60;;
48034;SDS011;33812;46.480;6.834;2023-12-04T16:14:48;1.50;;;0.82;;
48034;SDS011;33812;46.480;6.834;2023-12-04T16:18:50;3.53;;;1.33;;
48034;SDS011;33812;46.480;6.834;2023-12-04T16:22:52;2.70;;;1.20;;
48034;SDS011;33812;46.480;6.834;2023-12-04T16:26:53;1.38;;;0.70;;
48034;SDS011;33812;46.480;6.834;2023-12-04T16:30:57;1.58;;;0.95;;
48034;SDS011;33812;46.480;6.834;2023-12-04T16:34:59;1.50;;;0.80;;
48034;SDS011;33812;46.480;6.834;2023-12-04T16:39:01;3.42;;;1.48;;
48034;SDS011;33812;46.480;6.834;2023-12-04T16:43:04;5.20;;;1.17;;
48034;SDS011;33812;46.480;6.834;2023-12-04T16:47:07;10.23;;;1.85;;
48034;SDS011;33812;46.480;6.834;2023-12-04T16:51:08;6.55;;;1.45;;
48034;SDS011;33812;46.480;6.834;2023-12-04T16:55:11;3.60;;;1.38;;
48034;SDS011;33812;46.480;6.834;2023-12-04T16:59:12;7.20;;;1.17;;
48034;SDS011;33812;46.480;6.834;2023-12-04T17:03:16;3.15;;;1.23;;
48034;SDS011;33812;46.480;6.834;2023-12-04T17:07:18;1.85;;;1.17;;
48034;SDS011;33812;46.480;6.834;2023-12-04T17:11:20;5.63;;;1.48;;
48034;SDS011;33812;46.480;6.834;2023-12-04T17:15:22;7.53;;;1.88;;
48034;SDS011;33812;46.480;6.834;2023-12-04T17:19:25;6.10;;;1.95;;
48034;SDS011;33812;46.480;6.834;2023-12-04T17:23:29;21.40;;;3.40;;
48034;SDS011;33812;46.480;6.834;2023-12-04T17:27:31;11.18;;;3.67;;
48034;SDS011;33812;46.480;6.834;2023-12-04T17:31:33;10.25;;;3.28;;
48034;SDS011;33812;46.480;6.834;2023-12-04T17:35:36;10.95;;;2.50;;
48034;SDS011;33812;46.480;6.834;2023-12-04T17:39:38;8.48;;;2.78;;
48034;SDS011;33812;46.480;6.834;2023-12-04T17:43:41;7.13;;;2.65;;
48034;SDS011;33812;46.480;6.834;2023-12-04T17:47:43;10.13;;;2.33;;
48034;SDS011;33812;46.480;6.834;2023-12-04T17:51:46;10.73;;;2.45;;
48034;SDS011;33812;46.480;6.834;2023-12-04T17:55:48;10.80;;;2.13;;
48034;SDS011;33812;46.480;6.834;2023-12-04T17:59:50;7.55;;;1.92;;
48034;SDS011;33812;46.480;6.834;2023-12-04T18:03:52;4.68;;;1.75;;
48034;SDS011;33812;46.480;6.834;2023-12-04T18:07:55;5.68;;;1.98;;
48034;SDS011;33812;46.480;6.834;2023-12-04T18:11:57;11.98;;;2.28;;
48034;SDS011;33812;46.480;6.834;2023-12-04T18:15:59;12.70;;;1.77;;
48034;SDS011;33812;46.480;6.834;2023-12-04T18:20:02;7.15;;;1.83;;
48034;SDS011;33812;46.480;6.834;2023-12-04T18:24:08;7.90;;;2.17;;
48034;SDS011;33812;46.480;6.834;2023-12-04T18:28:11;8.23;;;2.38;;
48034;SDS011;33812;46.480;6.834;2023-12-04T18:32:14;11.40;;;2.00;;
48034;SDS011;33812;46.480;6.834;2023-12-04T18:36:16;9.18;;;2.92;;
48034;SDS011;33812;46.480;6.834;2023-12-04T18:40:19;16.95;;;2.17;;
48034;SDS011;33812;46.480;6.834;2023-12-04T18:44:23;9.73;;;2.55;;
48034;SDS011;33812;46.480;6.834;2023-12-04T18:48:26;11.48;;;2.42;;
48034;SDS011;33812;46.480;6.834;2023-12-04T18:52:31;14.90;;;2.33;;
48034;SDS011;33812;46.480;6.834;2023-12-04T18:56:35;6.30;;;1.90;;
48034;SDS011;33812;46.480;6.834;2023-12-04T19:00:37;10.48;;;2.60;;
48034;SDS011;33812;46.480;6.834;2023-12-04T19:04:39;7.13;;;1.70;;
48034;SDS011;33812;46.480;6.834;2023-12-04T19:08:41;5.55;;;2.20;;
48034;SDS011;33812;46.480;6.834;2023-12-04T19:12:44;14.45;;;2.05;;
48034;SDS011;33812;46.480;6.834;2023-12-04T19:16:45;3.42;;;1.60;;
48034;SDS011;33812;46.480;6.834;2023-12-04T19:20:47;4.95;;;0.85;;
48034;SDS011;33812;46.480;6.834;2023-12-04T19:24:49;2.17;;;0.90;;
48034;SDS011;33812;46.480;6.834;2023-12-04T19:28:52;2.78;;;0.90;;
48034;SDS011;33812;46.480;6.834;2023-12-04T19:32:53;1.83;;;1.13;;
48034;SDS011;33812;46.480;6.834;2023-12-04T19:36:55;45.22;;;9.45;;
48034;SDS011;33812;46.480;6.834;2023-12-04T19:40:57;11.60;;;2.40;;
48034;SDS011;33812;46.480;6.834;2023-12-04T19:45:00;17.88;;;2.47;;
48034;SDS011;33812;46.480;6.834;2023-12-04T19:49:02;26.60;;;3.08;;
48034;SDS011;33812;46.480;6.834;2023-12-04T19:53:04;22.95;;;6.28;;
48034;SDS011;33812;46.480;6.834;2023-12-04T19:57:05;20.40;;;6.15;;
48034;SDS011;33812;46.480;6.834;2023-12-04T20:01:08;20.35;;;4.80;;
48034;SDS011;33812;46.480;6.834;2023-12-04T20:05:12;10.90;;;4.90;;
48034;SDS011;33812;46.480;6.834;2023-12-04T20:09:14;13.02;;;3.92;;
48034;SDS011;33812;46.480;6.834;2023-12-04T20:13:16;13.68;;;4.72;;
48034;SDS011;33812;46.480;6.834;2023-12-04T20:17:19;11.70;;;4.30;;
48034;SDS011;33812;46.480;6.834;2023-12-04T20:21:21;17.15;;;4.05;;
48034;SDS011;33812;46.480;6.834;2023-12-04T20:25:23;12.40;;;3.63;;
48034;SDS011;33812;46.480;6.834;2023-12-04T20:29:26;20.92;;;4.05;;
48034;SDS011;33812;46.480;6.834;2023-12-04T20:33:29;10.50;;;3.53;;
48034;SDS011;33812;46.480;6.834;2023-12-04T20:37:31;11.38;;;3.70;;
48034;SDS011;33812;46.480;6.834;2023-12-04T20:41:33;17.50;;;4.18;;
48034;SDS011;33812;46.480;6.834;2023-12-04T20:45:34;10.02;;;3.10;;
48034;SDS011;33812;46.480;6.834;2023-12-04T20:49:38;9.15;;;3.20;;
48034;SDS011;33812;46.480;6.834;2023-12-04T20:53:39;11.93;;;2.97;;
48034;SDS011;33812;46.480;6.834;2023-12-04T20:57:42;8.73;;;2.80;;
48034;SDS011;33812;46.480;6.834;2023-12-04T21:01:47;7.93;;;2.60;;
48034;SDS011;33812;46.480;6.834;2023-12-04T21:05:51;9.27;;;2.33;;
48034;SDS011;33812;46.480;6.834;2023-12-04T21:09:53;6.90;;;2.30;;
48034;SDS011;33812;46.480;6.834;2023-12-04T21:13:54;7.55;;;3.40;;
48034;SDS011;33812;46.480;6.834;2023-12-04T21:17:57;7.53;;;2.60;;
48034;SDS011;33812;46.480;6.834;2023-12-04T21:22:00;6.25;;;2.53;;
48034;SDS011;33812;46.480;6.834;2023-12-04T21:26:02;5.40;;;2.38;;
48034;SDS011;33812;46.480;6.834;2023-12-04T21:30:07;7.50;;;2.33;;
48034;SDS011;33812;46.480;6.834;2023-12-04T21:34:11;11.85;;;4.38;;
48034;SDS011;33812;46.480;6.834;2023-12-04T21:38:16;3.63;;;1.90;;
48034;SDS011;33812;46.480;6.834;2023-12-04T21:42:18;21.73;;;2.20;;
48034;SDS011;33812;46.480;6.834;2023-12-04T21:46:21;6.18;;;2.38;;
48034;SDS011;33812;46.480;6.834;2023-12-04T21:50:23;5.30;;;2.20;;
48034;SDS011;33812;46.480;6.834;2023-12-04T21:54:27;4.30;;;2.13;;
48034;SDS011;33812;46.480;6.834;2023-12-04T21:58:29;5.22;;;1.90;;
48034;SDS011;33812;46.480;6.834;2023-12-04T22:02:31;6.03;;;1.85;;
48034;SDS011;33812;46.480;6.834;2023-12-04T22:06:33;7.68;;;1.50;;
48034;SDS011;33812;46.480;6.834;2023-12-04T22:10:36;3.25;;;1.50;;
48034;SDS011;33812;46.480;6.834;2023-12-04T22:14:38;4.32;;;1.50;;
48034;SDS011;33812;46.480;6.834;2023-12-04T22:18:40;3.10;;;1.40;;
48034;SDS011;33812;46.480;6.834;2023-12-04T22:22:44;3.33;;;1.60;;
48034;SDS011;33812;46.480;6.834;2023-12-04T22:26:47;5.15;;;1.85;;
48034;SDS011;33812;46.480;6.834;2023-12-04T22:30:49;4.03;;;1.70;;
48034;SDS011;33812;46.480;6.834;2023-12-04T22:34:51;4.57;;;1.75;;
48034;SDS011;33812;46.480;6.834;2023-12-04T22:38:53;4.72;;;1.58;;
48034;SDS011;33812;46.480;6.834;2023-12-04T22:42:57;2.78;;;1.70;;
48034;SDS011;33812;46.480;6.834;2023-12-04T22:46:59;5.18;;;1.95;;
48034;SDS011;33812;46.480;6.834;2023-12-04T22:51:01;5.65;;;1.83;;
48034;SDS011;33812;46.480;6.834;2023-12-04T22:55:03;4.15;;;1.67;;
48034;SDS011;33812;46.480;6.834;2023-12-04T22:59:06;5.72;;;1.63;;
48034;SDS011;33812;46.480;6.834;2023-12-04T23:03:08;3.00;;;1.38;;
48034;SDS011;33812;46.480;6.834;2023-12-04T23:07:10;3.47;;;1.63;;
48034;SDS011;33812;46.480;6.834;2023-12-04T23:11:14;3.72;;;1.50;;
48034;SDS011;33812;46.480;6.834;2023-12-04T23:15:18;2.30;;;1.27;;
48034;SDS011;33812;46.480;6.834;2023-12-04T23:19:20;2.90;;;1.35;;
48034;SDS011;33812;46.480;6.834;2023-12-04T23:23:22;3.47;;;1.58;;
48034;SDS011;33812;46.480;6.834;2023-12-04T23:27:24;5.30;;;1.33;;
48034;SDS011;33812;46.480;6.834;2023-12-04T23:31:32;2.72;;;1.30;;
48034;SDS011;33812;46.480;6.834;2023-12-04T23:35:34;3.03;;;1.30;;
48034;SDS011;33812;46.480;6.834;2023-12-04T23:39:36;2.50;;;1.27;;
48034;SDS011;33812;46.480;6.834;2023-12-04T23:43:38;2.35;;;1.20;;
48034;SDS011;33812;46.480;6.834;2023-12-04T23:47:41;2.28;;;1.10;;
48034;SDS011;33812;46.480;6.834;2023-12-04T23:51:43;2.35;;;1.25;;
48034;SDS011;33812;46.480;6.834;2023-12-04T23:55:44;4.85;;;2.00;;
48034;SDS011;33812;46.480;6.834;2023-12-04T23:59:46;3.67;;;1.40;;
